Terminal Aerodrome Forecast
Issued by NWS

Home | Current Version | Previous Version | Text Only | Print | Product List | Glossary On
Versions: 1 2 3 4 5 6 7 8 9 10 11 12 13 14 15 16 17 18 19 20 21
000
FTUS45 KRIW 241700
TAFJAC
TAF
KJAC 241728Z 2418/2518 27012G22KT P6SM SCT025 BKN050
     FM241900 21010KT P6SM FEW020 SCT060
     FM250400 19007KT P6SM VCSH SCT030 BKN045
     FM250900 18011KT 2SM -SN OVC018
     FM251500 18012KT 3/4SM -SN OVC015
      AMD LTD TO CLD VIS AND WIND=

USA.gov is the U.S. government's official web portal to all federal, state and local government web resources and services.